createdAt,value
2019-03-23T00:03:58.730Z,11.60
2019-03-23T00:08:17.793Z,11.60
2019-03-23T00:12:36.740Z,11.60
2019-03-23T00:16:57.308Z,11.50
2019-03-23T00:21:16.999Z,11.50
2019-03-23T00:25:36.536Z,11.40
2019-03-23T00:29:55.870Z,11.40
2019-03-23T00:34:15.008Z,11.40
2019-03-23T00:38:34.452Z,11.30
2019-03-23T00:42:53.411Z,11.30
2019-03-23T00:47:12.446Z,11.30
2019-03-23T00:51:31.472Z,11.20
2019-03-23T00:55:50.901Z,11.20
2019-03-23T01:00:11.071Z,11.10
2019-03-23T01:04:30.393Z,11.00
2019-03-23T01:08:49.400Z,10.90
2019-03-23T01:13:08.906Z,10.90
2019-03-23T01:17:27.937Z,10.90
2019-03-23T01:21:47.350Z,10.80
2019-03-23T01:26:07.129Z,10.80
2019-03-23T01:30:27.543Z,10.70
2019-03-23T01:34:46.409Z,10.70
2019-03-23T01:39:06.704Z,10.60
2019-03-23T01:43:25.527Z,10.60
2019-03-23T01:47:44.689Z,10.50
2019-03-23T01:52:03.662Z,10.40
2019-03-23T01:56:23.080Z,10.40
2019-03-23T02:00:42.373Z,10.40
2019-03-23T02:05:01.558Z,10.30
2019-03-23T02:09:20.694Z,10.20
2019-03-23T02:13:40.144Z,10.20
2019-03-23T02:17:59.206Z,10.10
2019-03-23T02:22:18.679Z,10.10
2019-03-23T02:26:37.690Z,10.00
2019-03-23T02:31:07.290Z,9.90
2019-03-23T02:35:26.785Z,9.90
2019-03-23T02:39:45.759Z,9.90
2019-03-23T02:44:06.121Z,9.80
2019-03-23T02:48:25.103Z,9.70
2019-03-23T02:52:44.127Z,9.60
2019-03-23T02:57:03.138Z,9.60
2019-03-23T03:01:22.229Z,9.60
2019-03-23T03:05:41.620Z,9.50
2019-03-23T03:10:01.081Z,9.50
2019-03-23T03:14:20.294Z,9.50
2019-03-23T03:18:39.271Z,9.50
2019-03-23T03:22:58.787Z,9.40
2019-03-23T03:27:18.253Z,9.40
2019-03-23T03:31:37.240Z,9.40
2019-03-23T03:35:56.306Z,9.40
2019-03-23T03:40:16.937Z,9.30
2019-03-23T03:44:36.094Z,9.30
2019-03-23T03:48:55.073Z,9.20
2019-03-23T03:53:14.130Z,9.10
2019-03-23T03:57:33.230Z,9.10
2019-03-23T04:01:52.187Z,9.10
2019-03-23T04:06:11.142Z,9.10
2019-03-23T04:10:30.155Z,9.00
2019-03-23T04:14:49.460Z,9.00
2019-03-23T04:19:08.411Z,9.00
2019-03-23T04:23:27.469Z,8.90
2019-03-23T04:27:46.447Z,8.90
2019-03-23T04:32:05.465Z,8.80
2019-03-23T04:36:24.492Z,8.80
2019-03-23T04:40:43.959Z,8.80
2019-03-23T04:45:04.375Z,8.70
2019-03-23T04:49:23.468Z,8.70
2019-03-23T04:53:42.369Z,8.70
2019-03-23T04:58:03.057Z,8.70
2019-03-23T05:02:23.950Z,8.60
2019-03-23T05:06:43.188Z,8.60
2019-03-23T05:11:01.983Z,8.60
2019-03-23T05:15:21.078Z,8.50
2019-03-23T05:19:40.137Z,8.50
2019-03-23T05:23:59.053Z,8.40
2019-03-23T05:28:18.517Z,8.40
2019-03-23T05:32:38.622Z,8.40
2019-03-23T05:36:57.504Z,8.40
2019-03-23T05:41:19.639Z,8.40
2019-03-23T05:45:38.629Z,8.40
2019-03-23T05:49:58.389Z,8.40
2019-03-23T05:54:17.275Z,8.40
2019-03-23T05:58:38.582Z,8.50
2019-03-23T06:02:57.578Z,8.50
2019-03-23T06:07:18.006Z,8.50
2019-03-23T06:11:36.904Z,8.50
2019-03-23T06:15:56.118Z,8.60
2019-03-23T06:20:15.401Z,8.70
2019-03-23T06:24:34.695Z,8.70
2019-03-23T06:28:53.657Z,8.80
2019-03-23T06:33:12.567Z,8.90
2019-03-23T06:37:34.850Z,9.00
2019-03-23T06:41:56.010Z,9.10
2019-03-23T06:46:16.348Z,9.20
2019-03-23T06:50:36.861Z,9.40
2019-03-23T06:54:56.107Z,9.90
2019-03-23T06:59:15.992Z,10.50
2019-03-23T07:03:34.939Z,10.90
2019-03-23T07:07:55.505Z,11.20
2019-03-23T07:12:14.423Z,11.40
2019-03-23T07:16:33.866Z,11.50
2019-03-23T07:20:52.782Z,11.40
2019-03-23T07:25:12.265Z,11.40
2019-03-23T07:29:31.337Z,11.30
2019-03-23T07:33:50.635Z,11.60
2019-03-23T07:38:09.704Z,12.10
2019-03-23T07:42:29.300Z,12.90
2019-03-23T07:46:48.819Z,14.00
2019-03-23T07:51:07.901Z,15.40
2019-03-23T07:55:29.107Z,16.90
2019-03-23T07:59:48.108Z,18.30
2019-03-23T08:04:07.926Z,19.50
2019-03-23T08:08:26.946Z,20.70
2019-03-23T08:12:45.800Z,21.60
2019-03-23T08:17:05.203Z,22.20
2019-03-23T08:21:24.251Z,22.70
2019-03-23T08:25:43.272Z,23.20
2019-03-23T08:30:02.609Z,23.70
2019-03-23T08:34:22.581Z,24.20
2019-03-23T08:38:41.559Z,24.70
2019-03-23T08:43:00.634Z,25.30
2019-03-23T08:47:19.714Z,25.90
2019-03-23T08:51:39.919Z,26.40
2019-03-23T08:55:58.879Z,26.80
2019-03-23T09:00:18.911Z,27.20
2019-03-23T09:04:38.019Z,27.70
2019-03-23T09:08:57.029Z,28.10
2019-03-23T09:13:16.533Z,28.30
2019-03-23T09:17:35.881Z,28.30
2019-03-23T09:21:55.018Z,28.30
2019-03-23T09:26:15.473Z,28.50
2019-03-23T09:30:34.711Z,28.90
2019-03-23T09:34:54.814Z,29.20
2019-03-23T09:39:14.271Z,29.50
2019-03-23T09:43:33.196Z,29.70
2019-03-23T09:47:52.608Z,29.90
2019-03-23T09:52:11.967Z,29.90
2019-03-23T09:56:31.054Z,30.00
2019-03-23T10:00:50.863Z,30.10
2019-03-23T10:05:10.570Z,30.10
2019-03-23T10:09:29.463Z,30.20
2019-03-23T10:13:48.894Z,30.30
2019-03-23T10:18:07.842Z,30.50
2019-03-23T10:22:27.823Z,30.70
2019-03-23T10:26:46.845Z,30.80
2019-03-23T10:31:05.894Z,31.00
2019-03-23T10:35:24.969Z,31.10
2019-03-23T10:39:44.380Z,31.30
2019-03-23T10:44:03.382Z,31.40
2019-03-23T10:48:22.449Z,31.60
2019-03-23T10:52:41.516Z,31.70
2019-03-23T10:57:00.378Z,31.80
2019-03-23T11:01:19.673Z,31.90
2019-03-23T11:05:38.880Z,31.90
2019-03-23T11:09:58.466Z,31.90
2019-03-23T11:14:17.883Z,31.90
2019-03-23T11:18:38.196Z,31.90
2019-03-23T11:22:57.221Z,31.80
2019-03-23T11:27:16.166Z,31.50
2019-03-23T11:31:35.250Z,31.30
2019-03-23T11:35:58.011Z,31.20
2019-03-23T11:40:15.602Z,31.40
2019-03-23T11:44:34.611Z,31.60
2019-03-23T11:48:53.993Z,31.90
2019-03-23T11:53:12.934Z,31.80
2019-03-23T11:57:38.347Z,31.30
2019-03-23T12:01:58.162Z,30.60
2019-03-23T12:06:19.002Z,30.10
2019-03-23T12:10:39.346Z,29.90
2019-03-23T12:14:58.943Z,29.90
2019-03-23T12:19:18.988Z,30.00
2019-03-23T12:23:38.811Z,30.10
2019-03-23T12:27:57.906Z,29.80
2019-03-23T12:32:16.918Z,29.30
2019-03-23T12:36:35.935Z,29.00
2019-03-23T12:40:54.983Z,28.90
2019-03-23T12:45:14.255Z,28.70
2019-03-23T12:49:33.717Z,28.60
2019-03-23T12:53:54.616Z,28.50
2019-03-23T12:58:13.552Z,28.30
2019-03-23T13:02:32.609Z,28.20
2019-03-23T13:06:54.386Z,27.90
2019-03-23T13:11:23.122Z,27.70
2019-03-23T13:15:35.108Z,27.40
2019-03-23T13:19:54.443Z,27.10
2019-03-23T13:24:14.196Z,26.90
2019-03-23T13:28:33.008Z,26.60
2019-03-23T13:32:54.358Z,26.40
2019-03-23T13:37:13.771Z,26.10
2019-03-23T13:41:33.317Z,25.80
2019-03-23T13:45:52.458Z,25.60
2019-03-23T13:50:14.298Z,25.30
2019-03-23T13:54:33.166Z,25.10
2019-03-23T13:58:53.834Z,24.80
2019-03-23T14:03:13.102Z,24.50
2019-03-23T14:07:32.094Z,24.30
2019-03-23T14:11:55.221Z,24.10
2019-03-23T14:16:14.471Z,23.90
2019-03-23T14:20:33.839Z,23.80
2019-03-23T14:24:52.944Z,23.60
2019-03-23T14:29:11.855Z,23.50
2019-03-23T14:33:30.784Z,23.40
2019-03-23T14:37:49.854Z,23.30
2019-03-23T14:42:08.884Z,23.20
2019-03-23T14:46:28.500Z,23.00
2019-03-23T14:50:47.833Z,22.90
2019-03-23T14:55:07.706Z,22.80
2019-03-23T14:59:27.251Z,22.80
2019-03-23T15:03:46.662Z,22.70
2019-03-23T15:08:07.069Z,22.60
2019-03-23T15:12:25.887Z,22.50
2019-03-23T15:16:50.420Z,22.40
2019-03-23T15:21:10.131Z,22.30
2019-03-23T15:25:31.655Z,22.20
2019-03-23T15:29:52.803Z,22.10
2019-03-23T15:34:11.907Z,22.00
2019-03-23T15:38:36.451Z,21.90
2019-03-23T15:43:00.917Z,21.80
2019-03-23T15:47:21.277Z,21.70
2019-03-23T15:51:44.309Z,21.60
2019-03-23T15:56:04.510Z,21.50
2019-03-23T16:00:24.561Z,21.40
2019-03-23T16:04:44.599Z,21.40
2019-03-23T16:09:06.570Z,21.30
2019-03-23T16:13:26.700Z,21.10
2019-03-23T16:17:48.760Z,21.00
2019-03-23T16:22:09.989Z,20.90
2019-03-23T16:26:31.340Z,20.80
2019-03-23T16:30:51.245Z,20.60
2019-03-23T16:35:13.380Z,20.60
2019-03-23T16:39:36.273Z,20.50
2019-03-23T16:43:55.634Z,20.50
2019-03-23T16:48:15.213Z,20.40
2019-03-23T16:52:34.891Z,20.40
2019-03-23T16:56:57.700Z,20.30
2019-03-23T17:01:17.870Z,20.20
2019-03-23T17:05:38.357Z,20.10
2019-03-23T17:09:57.390Z,20.00
2019-03-23T17:14:18.239Z,19.90
2019-03-23T17:18:37.995Z,19.90
2019-03-23T17:22:57.352Z,19.70
2019-03-23T17:27:17.955Z,19.60
2019-03-23T17:31:37.042Z,19.50
2019-03-23T17:35:56.741Z,19.40
2019-03-23T17:40:15.894Z,19.30
2019-03-23T17:44:35.348Z,19.20
2019-03-23T17:48:54.417Z,19.00
2019-03-23T17:53:13.556Z,18.90
2019-03-23T17:57:33.280Z,18.80
2019-03-23T18:01:52.261Z,18.70
2019-03-23T18:06:12.668Z,18.50
2019-03-23T18:10:31.615Z,18.30
2019-03-23T18:14:51.869Z,18.10
2019-03-23T18:19:11.331Z,18.00
2019-03-23T18:23:30.425Z,17.80
2019-03-23T18:27:49.791Z,17.70
2019-03-23T18:32:08.941Z,17.60
2019-03-23T18:36:27.944Z,17.40
2019-03-23T18:40:46.909Z,17.30
2019-03-23T18:45:06.733Z,17.10
2019-03-23T18:49:25.763Z,17.00
2019-03-23T18:53:48.434Z,16.80
2019-03-23T18:58:07.337Z,16.70
2019-03-23T19:02:26.513Z,16.60
2019-03-23T19:06:45.553Z,16.50
2019-03-23T19:11:05.030Z,16.50
2019-03-23T19:15:24.165Z,16.40
2019-03-23T19:19:43.185Z,16.30
2019-03-23T19:24:02.203Z,16.30
2019-03-23T19:28:21.525Z,16.20
2019-03-23T19:32:40.538Z,16.10
2019-03-23T19:36:59.442Z,16.10
2019-03-23T19:41:18.660Z,16.00
2019-03-23T19:45:39.544Z,16.00
2019-03-23T19:49:59.682Z,16.00
2019-03-23T19:54:18.640Z,15.90
2019-03-23T19:58:37.943Z,15.90
2019-03-23T20:02:57.443Z,15.80
2019-03-23T20:07:16.356Z,15.80
2019-03-23T20:11:35.746Z,15.70
2019-03-23T20:15:54.613Z,15.70
2019-03-23T20:20:16.207Z,15.60
2019-03-23T20:24:35.573Z,15.60
2019-03-23T20:28:54.459Z,15.50
2019-03-23T20:33:19.436Z,15.40
2019-03-23T20:37:35.762Z,15.30
2019-03-23T20:41:54.825Z,15.20
2019-03-23T20:46:14.426Z,15.20
2019-03-23T20:50:34.314Z,15.10
2019-03-23T20:54:53.430Z,15.10
2019-03-23T20:59:12.742Z,15.10
2019-03-23T21:03:31.729Z,15.00
2019-03-23T21:07:50.994Z,15.10
2019-03-23T21:12:10.200Z,15.10
2019-03-23T21:16:29.180Z,15.00
2019-03-23T21:20:48.493Z,15.00
2019-03-23T21:25:07.887Z,15.00
2019-03-23T21:29:27.529Z,15.00
2019-03-23T21:33:46.559Z,15.00
2019-03-23T21:38:05.865Z,14.90
2019-03-23T21:42:24.933Z,14.90
2019-03-23T21:46:44.174Z,14.80
2019-03-23T21:51:03.880Z,14.80
2019-03-23T21:55:23.075Z,14.70
2019-03-23T21:59:42.498Z,14.70
2019-03-23T22:04:02.610Z,14.60
2019-03-23T22:08:21.858Z,14.60
2019-03-23T22:12:40.865Z,14.50
2019-03-23T22:16:59.590Z,14.50
2019-03-23T22:21:18.898Z,14.40
2019-03-23T22:25:38.439Z,14.40
2019-03-23T22:29:57.499Z,14.30
2019-03-23T22:34:16.394Z,14.30
2019-03-23T22:38:35.687Z,14.20
2019-03-23T22:42:54.718Z,14.20
2019-03-23T22:47:14.988Z,14.10
2019-03-23T22:51:34.747Z,14.10
2019-03-23T22:55:53.885Z,14.00
2019-03-23T23:00:18.469Z,14.00
2019-03-23T23:04:39.224Z,13.90
2019-03-23T23:08:59.561Z,13.80
2019-03-23T23:13:19.345Z,13.70
2019-03-23T23:17:38.587Z,13.60
2019-03-23T23:21:57.519Z,13.50
2019-03-23T23:26:17.750Z,13.50
2019-03-23T23:30:37.252Z,13.40
2019-03-23T23:34:57.325Z,13.40
2019-03-23T23:39:17.261Z,13.30
2019-03-23T23:43:36.167Z,13.20
2019-03-23T23:47:56.213Z,13.20
2019-03-23T23:52:15.810Z,13.10
2019-03-23T23:56:35.207Z,13.00
